Time;durP1;ratioP1;P1;durP2;ratioP2;P2;SDS_P1;SDS_P2;PMS_P1;PMS_P2;Temp;Humidity;BMP_temperature;BMP_pressure;BME280_temperature;BME280_humidity;BME280_pressure;Samples;Min_cycle;Max_cycle;Signal;HPM_P1;HPM_P2
2022/04/28 00:01:20;;;;;;;0.20;0.20;;;;;;;16.04;49.83;100304.00;6220358;23;20016;-70
2022/04/28 00:03:49;;;;;;;0.20;0.20;;;;;;;15.93;50.87;100305.97;6220989;23;20085;-70
2022/04/28 00:06:20;;;;;;;0.20;0.20;;;;;;;16.12;50.19;100308.41;6220401;23;20005;-70
2022/04/28 00:08:45;;;;;;;0.20;0.20;;;;;;;16.11;49.97;100314.44;6220920;23;20061;-70
2022/04/28 00:11:14;;;;;;;0.20;0.20;;;;;;;15.96;50.67;100305.97;6220118;23;20008;-70
2022/04/28 00:13:42;;;;;;;0.20;0.20;;;;;;;15.89;50.67;100305.94;6220678;23;20005;-70
2022/04/28 00:16:10;;;;;;;0.20;0.20;;;;;;;15.88;50.69;100303.56;6220211;23;20008;-70
2022/04/28 00:18:39;;;;;;;0.10;0.10;;;;;;;15.85;51.08;100309.94;6220243;23;20016;-70
2022/04/28 00:21:10;;;;;;;0.20;0.20;;;;;;;15.87;50.19;100301.91;6220555;23;20015;-70
2022/04/28 00:23:35;;;;;;;0.20;0.20;;;;;;;15.81;50.50;100311.91;6220155;23;20004;-71
2022/04/28 00:26:04;;;;;;;0.20;0.20;;;;;;;15.74;50.62;100298.69;6220200;23;20010;-70
2022/04/28 00:28:32;;;;;;;0.20;0.20;;;;;;;15.81;52.36;100298.69;6220133;23;20015;-70
2022/04/28 00:30:58;;;;;;;0.20;0.20;;;;;;;15.81;51.60;100303.50;6246735;23;20012;-70
2022/04/28 00:33:23;;;;;;;0.20;0.20;;;;;;;15.84;50.64;100303.53;6219769;23;20065;-71
2022/04/28 00:35:53;;;;;;;0.20;0.20;;;;;;;15.91;51.03;100303.53;6220348;23;20010;-70
2022/04/28 00:38:21;;;;;;;0.20;0.20;;;;;;;15.87;51.07;100297.13;6219927;23;20047;-70
2022/04/28 00:40:50;;;;;;;0.20;0.20;;;;;;;15.92;51.13;100288.31;6219954;23;20088;-70
2022/04/28 00:43:26;;;;;;;0.20;0.20;;;;;;;15.93;50.66;100300.38;6220600;23;20027;-71
2022/04/28 00:45:51;;;;;;;0.20;0.20;;;;;;;15.86;51.10;100287.09;6219951;23;20011;-71
2022/04/28 00:51:05;;;;;;;0.20;0.20;;;;;;;15.93;50.58;100289.94;6247558;23;20018;-70
2022/04/28 00:53:35;;;;;;;0.20;0.20;;;;;;;15.88;51.02;100292.31;6220557;23;20102;-70
2022/04/28 00:58:49;;;;;;;0.20;0.20;;;;;;;15.79;51.72;100286.28;6224112;23;20347;-70
2022/04/28 01:01:16;;;;;;;0.20;0.20;;;;;;;15.98;51.04;100291.56;6220177;23;20075;-70
2022/04/28 01:03:42;;;;;;;0.20;0.20;;;;;;;15.86;51.04;100283.47;6219832;23;20004;-70
2022/04/28 01:06:08;;;;;;;0.20;0.20;;;;;;;15.88;51.06;100287.50;6219798;23;20004;-70
2022/04/28 01:08:34;;;;;;;0.20;0.20;;;;;;;15.89;51.03;100277.09;6219831;23;20090;-70
2022/04/28 01:11:04;;;;;;;0.20;0.20;;;;;;;15.81;51.59;100269.84;6219588;23;20008;-70
2022/04/28 01:13:33;;;;;;;0.20;0.20;;;;;;;15.69;51.60;100277.41;6219744;23;20004;-70
2022/04/28 01:15:59;;;;;;;0.20;0.20;;;;;;;15.75;51.56;100277.03;6220017;23;20018;-70
2022/04/28 01:18:25;;;;;;;0.20;0.20;;;;;;;15.70;51.11;100276.22;6220477;23;20039;-70
2022/04/28 01:20:54;;;;;;;0.20;0.20;;;;;;;15.80;50.83;100274.66;6219713;23;20020;-70
2022/04/28 01:23:19;;;;;;;0.20;0.20;;;;;;;15.68;51.75;100275.81;6219798;23;20020;-70
2022/04/28 01:25:48;;;;;;;0.20;0.20;;;;;;;15.62;51.25;100285.78;6219391;23;20004;-70
2022/04/28 01:28:16;;;;;;;0.20;0.20;;;;;;;15.66;52.05;100283.84;6219828;23;20015;-70
2022/04/28 01:30:42;;;;;;;0.20;0.20;;;;;;;15.47;51.92;100275.72;6219288;23;20146;-71
2022/04/28 01:33:13;;;;;;;0.20;0.20;;;;;;;15.58;53.03;100278.56;6219530;23;20008;-71
2022/04/28 01:35:39;;;;;;;0.20;0.20;;;;;;;15.54;53.01;100272.13;6219942;23;20019;-70
2022/04/28 01:38:04;;;;;;;0.20;0.20;;;;;;;15.55;52.49;100282.94;6219747;23;20507;-70
2022/04/28 01:40:33;;;;;;;0.20;0.20;;;;;;;15.55;52.42;100280.13;6219645;23;20034;-70
2022/04/28 01:43:01;;;;;;;0.20;0.20;;;;;;;15.53;52.05;100281.75;6219540;23;20004;-70
2022/04/28 01:45:26;;;;;;;0.20;0.20;;;;;;;15.54;52.19;100284.13;6219964;23;20158;-70
2022/04/28 01:47:55;;;;;;;0.20;0.20;;;;;;;15.50;52.66;100277.75;6219532;23;20492;-70
2022/04/28 01:50:23;;;;;;;0.20;0.20;;;;;;;15.47;53.58;100281.31;6219925;23;20031;-70
2022/04/28 01:55:37;;;;;;;;;;;;;;;15.48;52.73;100280.13;6247323;23;20023;-71
2022/04/28 01:58:04;;;;;;;0.20;0.20;;;;;;;15.59;52.93;100286.56;6219853;23;20225;-71
2022/04/28 02:00:34;;;;;;;0.20;0.20;;;;;;;15.88;49.82;100286.72;6219957;23;20008;-71
2022/04/28 02:03:00;;;;;;;0.20;0.20;;;;;;;15.65;50.79;100279.41;6219937;23;20074;-71
2022/04/28 02:05:25;;;;;;;0.20;0.20;;;;;;;15.58;51.76;100290.56;6220174;23;20091;-71
2022/04/28 02:07:56;;;;;;;0.20;0.20;;;;;;;15.60;52.15;100290.97;6220135;23;20063;-71
2022/04/28 02:10:27;;;;;;;0.20;0.20;;;;;;;15.64;51.99;100289.03;6219844;23;20326;-70
2022/04/28 02:12:56;;;;;;;0.20;0.20;;;;;;;15.71;50.62;100291.03;6219344;23;20000;-70
2022/04/28 02:15:21;;;;;;;0.20;0.20;;;;;;;15.63;50.65;100279.00;6219462;23;20004;-71
2022/04/28 02:17:49;;;;;;;0.20;0.20;;;;;;;15.73;50.96;100288.66;6220438;23;20016;-71
2022/04/28 02:20:15;;;;;;;0.20;0.20;;;;;;;15.67;50.89;100293.84;6219052;23;20012;-71
2022/04/28 02:22:41;;;;;;;0.20;0.20;;;;;;;15.66;51.08;100289.44;6219410;23;20012;-71
2022/04/28 02:25:07;;;;;;;0.20;0.20;;;;;;;15.64;51.48;100289.03;6219533;23;20016;-71
2022/04/28 02:27:35;;;;;;;0.20;0.20;;;;;;;15.65;51.03;100290.63;6219981;23;20364;-71
2022/04/28 02:30:01;;;;;;;0.20;0.20;;;;;;;15.55;51.24;100288.53;6219283;23;20016;-71
2022/04/28 02:33:08;;;;;;;0.20;0.20;;;;;;;15.53;50.85;100288.16;6219371;23;20012;-70
2022/04/28 02:35:15;;;;;;;0.20;0.20;;;;;;;15.63;50.21;100286.63;6245885;23;20012;-70
2022/04/28 02:37:40;;;;;;;0.20;0.20;;;;;;;15.67;49.47;100287.44;6220244;23;20058;-71
2022/04/28 02:40:07;;;;;;;0.20;0.20;;;;;;;15.50;50.71;100274.94;6221222;23;20011;-71
2022/04/28 02:42:35;;;;;;;0.20;0.20;;;;;;;15.47;49.61;100281.31;6221807;23;20368;-71
2022/04/28 02:45:04;;;;;;;0.20;0.20;;;;;;;15.46;50.42;100285.31;6221451;23;20069;-71
2022/04/28 02:47:29;;;;;;;0.20;0.20;;;;;;;15.45;49.66;100281.72;6221766;23;20016;-70
2022/04/28 02:49:58;;;;;;;0.20;0.20;;;;;;;15.55;48.90;100285.75;6221148;23;20012;-70
2022/04/28 02:52:26;;;;;;;0.20;0.20;;;;;;;15.56;49.06;100290.19;6221057;23;20463;-71
2022/04/28 02:54:54;;;;;;;0.20;0.20;;;;;;;15.46;48.81;100288.13;6221046;23;20008;-70
2022/04/28 02:57:23;;;;;;;0.20;0.20;;;;;;;15.39;49.12;100288.06;6222012;23;20012;-71
2022/04/28 02:59:51;;;;;;;0.20;0.20;;;;;;;15.38;49.63;100286.47;6221986;23;20317;-71
2022/04/28 03:02:23;;;;;;;0.20;0.20;;;;;;;15.34;50.02;100285.63;6221326;23;20016;-71
2022/04/28 03:04:51;;;;;;;0.20;0.20;;;;;;;15.38;48.69;100287.28;6221219;23;20134;-70
2022/04/28 03:12:45;;;;;;;0.20;0.20;;;;;;;15.29;50.07;100294.44;6247671;23;20015;-71
2022/04/28 03:15:16;;;;;;;0.20;0.20;;;;;;;15.28;51.31;100293.63;6220862;23;20008;-70
2022/04/28 03:17:45;;;;;;;0.20;0.20;;;;;;;15.26;51.48;100296.03;6221502;23;20008;-71
2022/04/28 03:20:11;;;;;;;0.20;0.20;;;;;;;15.22;51.29;100297.19;6220736;23;20105;-71
2022/04/28 03:22:43;;;;;;;0.20;0.20;;;;;;;15.19;50.06;100299.59;6221484;23;20007;-71
2022/04/28 03:25:12;;;;;;;0.20;0.20;;;;;;;15.17;47.59;100296.38;6221094;23;20054;-72
2022/04/28 03:27:37;;;;;;;0.20;0.20;;;;;;;15.24;48.10;100294.81;6197015;23;20016;-72
2022/04/28 03:30:08;;;;;;;0.20;0.20;;;;;;;15.19;48.73;100299.59;6220315;23;20412;-72
2022/04/28 03:32:36;;;;;;;0.20;0.20;;;;;;;15.10;48.59;100299.13;6247480;23;20421;-72
2022/04/28 03:35:01;;;;;;;0.20;0.20;;;;;;;15.11;48.86;100303.53;6220687;23;20030;-71
2022/04/28 03:37:30;;;;;;;0.20;0.20;;;;;;;15.04;48.77;100300.69;6221269;23;20090;-73
2022/04/28 03:39:55;;;;;;;0.20;0.20;;;;;;;15.07;47.81;100311.09;6247164;23;20027;-72
2022/04/28 03:42:21;;;;;;;0.20;0.20;;;;;;;15.01;48.08;100306.28;6220374;23;20432;-73
2022/04/28 03:44:46;;;;;;;0.20;0.20;;;;;;;14.99;47.57;100309.47;6220635;23;20035;-72
2022/04/28 03:47:15;;;;;;;0.20;0.20;;;;;;;14.97;47.87;100306.25;6221225;23;20012;-72
2022/04/28 03:49:43;;;;;;;0.20;0.20;;;;;;;15.06;46.66;100309.50;6220455;23;20015;-72
2022/04/28 03:52:09;;;;;;;0.20;0.20;;;;;;;15.21;48.84;100310.41;6220478;23;20004;-71
2022/04/28 03:54:35;;;;;;;0.20;0.20;;;;;;;15.17;47.66;100303.97;6220697;23;20099;-72
2022/04/28 03:57:03;;;;;;;0.20;0.20;;;;;;;15.03;48.11;100312.31;6220372;23;20433;-72
2022/04/28 03:59:29;;;;;;;0.20;0.20;;;;;;;15.11;47.90;100320.34;6220375;23;20008;-72
2022/04/28 04:01:55;;;;;;;0.20;0.20;;;;;;;15.10;50.34;100321.56;6220317;23;20008;-71
2022/04/28 04:04:23;;;;;;;0.20;0.20;;;;;;;15.18;48.61;100323.22;6220994;23;20012;-72
2022/04/28 04:06:51;;;;;;;0.20;0.20;;;;;;;15.07;48.91;100318.72;6220985;23;20075;-71
2022/04/28 04:09:20;;;;;;;0.20;0.20;;;;;;;14.98;49.67;100312.66;6220284;23;20008;-71
2022/04/28 04:11:48;;;;;;;0.20;0.20;;;;;;;15.10;49.98;100318.75;6220314;23;20011;-71
2022/04/28 04:14:14;;;;;;;0.20;0.20;;;;;;;15.05;49.08;100313.50;6220564;23;20422;-75
2022/04/28 04:16:40;;;;;;;0.20;0.20;;;;;;;15.16;49.42;100325.59;6220504;23;20008;-71
2022/04/28 04:19:10;;;;;;;0.20;0.20;;;;;;;15.17;49.63;100317.97;6220078;23;20506;-71
2022/04/28 04:21:36;;;;;;;0.20;0.20;;;;;;;15.23;48.69;100315.63;6220896;23;20034;-71
2022/04/28 04:24:02;;;;;;;0.20;0.20;;;;;;;15.29;49.06;100330.91;6220498;23;20413;-71
2022/04/28 04:26:30;;;;;;;0.20;0.20;;;;;;;15.35;49.13;100330.13;6220170;23;20337;-72
2022/04/28 04:28:55;;;;;;;0.20;0.20;;;;;;;15.40;48.40;100323.34;6219804;23;20008;-71
2022/04/28 04:34:14;;;;;;;0.20;0.20;;;;;;;15.85;46.78;100326.78;6246901;23;20512;-72
2022/04/28 04:36:45;;;;;;;0.20;0.20;;;;;;;16.20;46.52;100326.09;6220532;23;20016;-71
2022/04/28 04:39:17;;;;;;;0.20;0.20;;;;;;;16.42;45.07;100327.72;6220399;23;20007;-71
2022/04/28 04:41:42;;;;;;;0.20;0.20;;;;;;;16.62;43.98;100335.75;6220010;23;20014;-71
2022/04/28 04:44:13;;;;;;;0.20;0.20;;;;;;;16.79;42.72;100334.22;6220058;23;20031;-71
2022/04/28 04:46:44;;;;;;;0.20;0.20;;;;;;;16.97;43.07;100337.81;6220665;23;20008;-71
2022/04/28 04:49:10;;;;;;;0.20;0.20;;;;;;;17.13;40.06;100332.56;6219869;23;20012;-71
2022/04/28 04:51:38;;;;;;;0.20;0.20;;;;;;;17.13;40.26;100335.38;6220140;23;20365;-74
2022/04/28 04:54:06;;;;;;;0.20;0.20;;;;;;;17.32;41.05;100333.34;6220057;23;20429;-77
2022/04/28 04:56:36;;;;;;;0.20;0.20;;;;;;;17.49;40.91;100347.34;6220009;23;20328;-72
2022/04/28 04:59:02;;;;;;;0.20;0.20;;;;;;;17.98;39.71;100333.53;6219752;23;20317;-70
2022/04/28 05:01:28;;;;;;;0.20;0.20;;;;;;;18.29;39.80;100324.09;6219633;23;20428;-70
2022/04/28 05:03:59;;;;;;;0.20;0.20;;;;;;;18.91;39.30;100341.38;6219504;23;20035;-70
2022/04/28 05:06:27;;;;;;;0.10;0.10;;;;;;;19.20;38.08;100342.72;6246618;23;20004;-70
2022/04/28 05:08:57;;;;;;;0.20;0.20;;;;;;;19.65;36.75;100337.00;6220082;23;20008;-69
2022/04/28 05:11:25;;;;;;;0.20;0.20;;;;;;;19.80;36.39;100341.28;6215958;23;20016;-70
2022/04/28 05:13:53;;;;;;;0.20;0.20;;;;;;;20.24;36.05;100342.34;6219604;23;20133;-70
2022/04/28 05:16:25;;;;;;;0.20;0.20;;;;;;;20.46;35.70;100350.50;6219334;23;20450;-69
2022/04/28 05:18:56;;;;;;;0.20;0.20;;;;;;;20.80;35.10;100351.19;6219224;23;20004;-70
2022/04/28 05:21:22;;;;;;;0.20;0.20;;;;;;;20.89;34.09;100359.13;6219589;23;20004;-70
2022/04/28 05:23:47;;;;;;;0.20;0.20;;;;;;;20.82;34.88;100351.53;6219563;23;20008;-69
2022/04/28 05:26:17;;;;;;;0.20;0.20;;;;;;;20.05;34.73;100348.63;6219795;23;20090;-71
2022/04/28 05:28:43;;;;;;;0.20;0.20;;;;;;;19.80;35.91;100358.22;6246064;23;20311;-70
2022/04/28 05:31:11;;;;;;;0.20;0.20;;;;;;;20.41;35.27;100358.22;6213913;23;20095;-73
2022/04/28 05:33:41;;;;;;;0.20;0.20;;;;;;;21.03;34.92;100363.72;6214227;23;20004;-73
2022/04/28 05:36:09;;;;;;;0.20;0.20;;;;;;;21.36;33.04;100364.78;6214411;23;20441;-69
2022/04/28 05:38:41;;;;;;;0.20;0.20;;;;;;;21.74;32.08;100373.78;6214585;23;20016;-69
2022/04/28 05:41:07;;;;;;;0.20;0.20;;;;;;;22.02;33.06;100361.06;6214494;23;20325;-69
2022/04/28 05:46:25;;;;;;;0.20;0.20;;;;;;;22.28;31.44;100367.81;6214236;23;20353;-70
2022/04/28 05:48:51;;;;;;;0.10;0.10;;;;;;;23.15;31.40;100373.84;6209042;23;20071;-69
2022/04/28 05:51:18;;;;;;;0.10;0.10;;;;;;;23.55;30.88;100373.63;6189405;23;20013;-70
2022/04/28 05:53:47;;;;;;;0.10;0.10;;;;;;;23.51;29.88;100373.72;6214368;23;20008;-70
2022/04/28 05:56:18;;;;;;;0.10;0.10;;;;;;;23.65;29.05;100363.22;6214312;23;20017;-69
2022/04/28 05:58:46;;;;;;;0.10;0.10;;;;;;;23.77;28.48;100371.81;6214726;23;20036;-69
2022/04/28 06:01:17;;;;;;;0.20;0.20;;;;;;;23.75;28.80;100379.19;6214250;23;20009;-70
2022/04/28 06:03:43;;;;;;;0.20;0.20;;;;;;;23.88;29.22;100376.41;6214248;23;20426;-75
2022/04/28 06:06:09;;;;;;;0.20;0.20;;;;;;;23.38;29.47;100380.56;6214212;23;20004;-70
2022/04/28 06:08:38;;;;;;;0.13;0.13;;;;;;;23.17;30.00;100379.91;6214679;23;20079;-70
2022/04/28 06:11:04;;;;;;;0.10;0.10;;;;;;;23.98;29.05;100390.28;6216521;23;20004;-73
2022/04/28 06:13:30;;;;;;;0.20;0.20;;;;;;;24.59;28.85;100390.53;6216969;23;20011;-70
2022/04/28 06:16:02;;;;;;;0.10;0.10;;;;;;;24.78;28.42;100389.53;6216421;23;20012;-71
2022/04/28 06:18:27;;;;;;;0.20;0.20;;;;;;;24.54;28.36;100391.91;6216327;23;20090;-70
2022/04/28 06:20:56;;;;;;;0.10;0.10;;;;;;;24.44;28.66;100385.28;6216705;23;20384;-70
2022/04/28 06:23:27;;;;;;;0.10;0.10;;;;;;;24.69;27.97;100392.25;6215533;23;20004;-70
2022/04/28 06:25:58;;;;;;;0.10;0.10;;;;;;;25.18;27.36;100389.03;6215639;23;20008;-70
2022/04/28 06:28:27;;;;;;;0.10;0.10;;;;;;;24.68;28.30;100391.44;6215727;23;20012;-71
2022/04/28 06:30:58;;;;;;;0.10;0.10;;;;;;;24.63;27.79;100394.06;6220235;23;20441;-72
2022/04/28 06:33:26;;;;;;;0.10;0.10;;;;;;;24.10;28.60;100390.78;6220726;23;20012;-73
2022/04/28 06:35:55;;;;;;;0.20;0.20;;;;;;;24.07;28.25;100391.66;6220802;23;20008;-72
2022/04/28 06:38:27;;;;;;;0.20;0.20;;;;;;;24.55;27.62;100391.47;6220767;23;20008;-72
2022/04/28 06:41:07;;;;;;;0.10;0.10;;;;;;;24.76;27.41;100384.28;6248650;23;20011;-73
2022/04/28 06:43:33;;;;;;;0.10;0.10;;;;;;;23.48;28.67;100385.97;6220952;23;20004;-72
2022/04/28 06:46:13;;;;;;;0.10;0.10;;;;;;;23.40;29.31;100387.41;6220824;23;20079;-73
2022/04/28 06:48:42;;;;;;;0.10;0.10;;;;;;;23.19;29.27;100391.59;6220549;23;20070;-73
2022/04/28 06:51:10;;;;;;;0.10;0.10;;;;;;;22.55;30.89;100398.00;6221572;23;20020;-76
2022/04/28 06:53:39;;;;;;;0.10;0.10;;;;;;;23.21;29.66;100394.78;6220805;23;20420;-69
2022/04/28 06:56:09;;;;;;;0.10;0.10;;;;;;;24.24;29.06;100396.06;6221435;23;20032;-71
2022/04/28 06:58:40;;;;;;;0.10;0.10;;;;;;;25.12;27.39;100396.56;6220976;23;20067;-73
2022/04/28 07:01:06;;;;;;;0.20;0.20;;;;;;;24.76;27.64;100392.00;6220654;23;20000;-71
2022/04/28 07:03:34;;;;;;;0.10;0.10;;;;;;;24.24;27.28;100364.78;6221002;23;20009;-72
2022/04/28 07:06:03;;;;;;;0.15;0.15;;;;;;;23.23;26.50;100402.88;6196370;23;20012;-72
2022/04/28 07:08:31;;;;;;;0.20;0.20;;;;;;;22.80;27.54;100391.72;6221283;23;20012;-72
2022/04/28 07:10:57;;;;;;;0.10;0.10;;;;;;;23.83;25.71;100391.94;6220992;23;20394;-71
2022/04/28 07:13:29;;;;;;;0.20;0.20;;;;;;;23.78;25.33;100395.34;6248091;23;20287;-71
2022/04/28 07:16:00;;;;;;;0.15;0.15;;;;;;;24.61;24.34;100388.03;6221393;23;20008;-71
2022/04/28 07:18:26;;;;;;;0.10;0.10;;;;;;;24.82;23.60;100395.88;6220974;23;20421;-70
2022/04/28 07:20:51;;;;;;;0.15;0.15;;;;;;;25.15;22.94;100402.16;6221010;23;20008;-70
2022/04/28 07:23:17;;;;;;;0.10;0.10;;;;;;;25.48;23.07;100408.34;6220936;23;20138;-71
2022/04/28 07:25:42;;;;;;;0.10;0.10;;;;;;;25.93;22.40;100400.66;6220546;23;20336;-72
2022/04/28 07:28:08;;;;;;;0.20;0.20;;;;;;;26.42;21.58;100412.28;6220607;23;20051;-72
2022/04/28 07:30:36;;;;;;;0.10;0.10;;;;;;;25.83;22.17;100405.50;6220676;23;20023;-71
2022/04/28 07:33:08;;;;;;;0.10;0.10;;;;;;;25.25;22.22;100405.91;6220529;23;20059;-71
2022/04/28 07:35:37;;;;;;;0.10;0.10;;;;;;;26.00;22.34;100412.63;6221248;23;20016;-72
2022/04/28 07:38:03;;;;;;;0.10;0.10;;;;;;;25.29;22.51;100406.56;6221294;23;20004;-72
2022/04/28 07:40:29;;;;;;;0.10;0.10;;;;;;;25.42;22.18;100412.25;6248167;23;20026;-71
2022/04/28 07:42:56;;;;;;;0.10;0.10;;;;;;;25.22;22.58;100404.75;6247071;23;20011;-71
2022/04/28 07:45:24;;;;;;;0.10;0.10;;;;;;;24.63;24.60;100414.00;6220364;23;20004;-72
2022/04/28 07:47:54;;;;;;;0.10;0.10;;;;;;;23.93;26.22;100405.06;6220629;23;20087;-71
2022/04/28 07:50:27;;;;;;;0.10;0.10;;;;;;;24.30;25.94;100411.31;6221101;23;20008;-71
2022/04/28 07:52:55;;;;;;;;;;;;;;;23.76;26.16;100412.84;6247540;23;20012;-71
2022/04/28 07:55:27;;;;;;;0.10;0.10;;;;;;;24.14;25.61;100414.22;6220300;23;19966;-71
2022/04/28 07:57:52;;;;;;;0.10;0.10;;;;;;;23.38;26.14;100423.94;6221054;23;20012;-71
2022/04/28 08:00:18;;;;;;;0.20;0.20;;;;;;;23.34;26.37;100414.75;6221056;23;20350;-70
2022/04/28 08:02:47;;;;;;;0.10;0.10;;;;;;;23.37;25.87;100422.34;6220540;23;20008;-70
2022/04/28 08:05:15;;;;;;;0.10;0.10;;;;;;;23.53;26.41;100415.88;6220621;23;20503;-72
2022/04/28 08:07:45;;;;;;;0.10;0.10;;;;;;;24.15;24.34;100421.50;6220453;23;20078;-71
2022/04/28 08:10:13;;;;;;;0.17;0.17;;;;;;;25.07;23.79;100426.41;6220116;23;20014;-71
2022/04/28 08:12:42;;;;;;;0.20;0.20;;;;;;;25.62;24.10;100421.28;6220008;23;20082;-71
2022/04/28 08:15:10;;;;;;;0.20;0.20;;;;;;;26.20;23.00;100420.00;6220096;23;20074;-70
2022/04/28 08:17:39;;;;;;;0.10;0.10;;;;;;;26.48;21.97;100433.22;6219912;23;20067;-71
2022/04/28 08:20:05;;;;;;;0.10;0.10;;;;;;;25.67;22.54;100428.44;6219984;23;20008;-71
2022/04/28 08:22:34;;;;;;;0.10;0.10;;;;;;;24.94;23.61;100414.22;6219884;23;20051;-72
2022/04/28 08:25:01;;;;;;;0.10;0.10;;;;;;;24.72;22.93;100414.13;6220084;23;20083;-71
2022/04/28 08:27:27;;;;;;;0.10;0.10;;;;;;;24.53;23.45;100413.84;6220107;23;20012;-71
2022/04/28 08:29:58;;;;;;;0.10;0.10;;;;;;;24.50;23.28;100416.81;6215029;23;20511;-72
2022/04/28 08:32:27;;;;;;;0.13;0.13;;;;;;;25.51;22.16;100418.00;6214995;23;20067;-71
2022/04/28 08:34:56;;;;;;;0.20;0.20;;;;;;;25.63;21.59;100424.94;6214468;23;20147;-70
2022/04/28 08:37:24;;;;;;;0.10;0.10;;;;;;;26.00;20.87;100421.16;6214997;23;20019;-71
2022/04/28 08:39:53;;;;;;;0.10;0.10;;;;;;;26.72;20.10;100427.78;6215625;23;20020;-75
2022/04/28 08:42:22;;;;;;;0.20;0.20;;;;;;;26.71;20.84;100420.50;6214903;23;20019;-72
2022/04/28 08:44:49;;;;;;;0.10;0.10;;;;;;;26.04;20.97;100427.50;6214848;23;20008;-70
2022/04/28 08:47:20;;;;;;;0.10;0.10;;;;;;;25.83;21.34;100422.59;6214783;23;20047;-71
2022/04/28 08:49:50;;;;;;;0.10;0.10;;;;;;;25.31;21.37;100415.44;6215798;23;20444;-71
2022/04/28 08:52:17;;;;;;;0.10;0.10;;;;;;;25.26;21.94;100405.44;6215086;23;20016;-71
2022/04/28 08:54:45;;;;;;;0.10;0.10;;;;;;;25.34;21.90;100408.81;6215055;23;20012;-71
2022/04/28 08:57:12;;;;;;;0.10;0.10;;;;;;;26.56;20.74;100420.25;6215086;23;20024;-71
2022/04/28 08:59:38;;;;;;;0.10;0.10;;;;;;;27.38;20.01;100411.22;6214705;23;20009;-71
2022/04/28 09:02:03;;;;;;;0.10;0.10;;;;;;;26.55;20.51;100420.75;6214477;23;20063;-71
2022/04/28 09:04:30;;;;;;;0.10;0.10;;;;;;;26.74;20.17;100421.59;6214951;23;20460;-71
2022/04/28 09:06:57;;;;;;;0.10;0.10;;;;;;;27.33;20.11;100411.06;6214765;23;20417;-72
2022/04/28 09:09:25;;;;;;;0.10;0.10;;;;;;;28.08;19.75;100407.78;6214734;23;20063;-73
2022/04/28 09:11:53;;;;;;;0.13;0.13;;;;;;;26.83;20.04;100411.03;6215301;23;20008;-72
2022/04/28 09:14:20;;;;;;;0.10;0.10;;;;;;;26.21;20.10;100413.06;6189778;23;20005;-72
2022/04/28 09:16:56;;;;;;;0.10;0.10;;;;;;;26.24;20.11;100418.63;6214983;23;20011;-71
2022/04/28 09:19:36;;;;;;;0.10;0.10;;;;;;;26.47;20.51;100413.72;6214526;23;20004;-72
2022/04/28 09:22:06;;;;;;;0.10;0.10;;;;;;;27.11;20.72;100419.72;6214390;23;20008;-71
2022/04/28 09:24:32;;;;;;;0.10;0.10;;;;;;;27.64;19.39;100408.84;6214418;23;20005;-71
2022/04/28 09:26:59;;;;;;;0.10;0.10;;;;;;;27.05;19.31;100405.22;6214452;23;20516;-71
2022/04/28 09:29:36;;;;;;;0.10;0.10;;;;;;;27.49;19.67;100407.91;6214194;23;20071;-71
2022/04/28 09:32:08;;;;;;;0.10;0.10;;;;;;;28.09;18.75;100404.44;6211651;23;20017;-71
2022/04/28 09:34:34;;;;;;;0.10;0.10;;;;;;;28.50;18.41;100405.00;6214859;23;20009;-71
2022/04/28 09:37:01;;;;;;;0.10;0.10;;;;;;;27.41;18.74;100398.06;6214859;23;20035;-71
2022/04/28 09:42:31;;;;;;;0.10;0.10;;;;;;;26.17;19.48;100401.78;6216328;23;20345;-69
2022/04/28 09:44:59;;;;;;;0.10;0.10;;;;;;;26.53;19.97;100401.25;6193827;23;20332;-69
2022/04/28 09:47:26;;;;;;;0.10;0.10;;;;;;;26.30;20.19;100398.84;6191394;23;20012;-71
2022/04/28 09:49:53;;;;;;;0.10;0.10;;;;;;;26.23;20.68;100396.28;6217211;23;20014;-74
2022/04/28 09:52:37;;;;;;;0.10;0.10;;;;;;;26.04;19.87;100398.19;6192272;23;20008;-70
2022/04/28 09:55:04;;;;;;;0.10;0.10;;;;;;;25.80;20.77;100401.53;6217042;23;20178;-70
2022/04/28 09:57:30;;;;;;;0.10;0.10;;;;;;;26.00;20.79;100403.25;6216392;23;20095;-69
2022/04/28 09:59:58;;;;;;;0.10;0.10;;;;;;;26.49;21.13;100389.16;6218275;23;20039;-71
2022/04/28 10:02:25;;;;;;;0.10;0.10;;;;;;;25.30;21.28;100391.06;6216169;23;20067;-71
2022/04/28 10:04:54;;;;;;;0.10;0.10;;;;;;;25.98;20.88;100394.38;6216337;23;20059;-71
2022/04/28 10:07:20;;;;;;;0.10;0.10;;;;;;;26.91;20.39;100380.16;6216594;23;20325;-70
2022/04/28 10:09:50;;;;;;;0.10;0.10;;;;;;;27.49;19.89;100376.47;6216785;23;20426;-70
2022/04/28 10:12:28;;;;;;;0.13;0.13;;;;;;;27.62;19.76;100377.09;6216983;23;20011;-70
2022/04/28 10:14:55;;;;;;;0.10;0.10;;;;;;;27.22;19.74;100387.84;6192951;23;20036;-71
2022/04/28 10:17:35;;;;;;;0.10;0.10;;;;;;;24.94;21.52;100382.91;6191469;23;20016;-70
2022/04/28 10:20:12;;;;;;;0.10;0.10;;;;;;;24.52;21.65;100307.03;6216333;23;20016;-70
2022/04/28 10:22:40;;;;;;;0.10;0.10;;;;;;;25.73;21.60;100370.41;6192863;23;20376;-70
2022/04/28 10:33:26;;;;;;;0.10;0.10;;;;;;;26.17;22.28;100364.72;6248336;23;20019;-69
2022/04/28 10:35:56;;;;;;;0.10;0.10;;;;;;;26.85;21.51;100362.06;6221049;23;20004;-69
2022/04/28 10:38:30;;;;;;;0.10;0.10;;;;;;;27.19;21.34;100360.25;6221380;23;20008;-69
2022/04/28 10:41:01;;;;;;;0.10;0.10;;;;;;;27.41;20.86;100355.19;6220975;23;20040;-69
2022/04/28 10:43:31;;;;;;;0.10;0.10;;;;;;;26.10;21.92;100362.94;6221682;23;20062;-71
2022/04/28 10:46:22;;;;;;;0.10;0.10;;;;;;;26.08;22.45;100365.44;6220888;23;20083;-70
2022/04/28 10:48:52;;;;;;;0.10;0.10;;;;;;;25.11;23.07;100355.13;6191721;23;20095;-70
2022/04/28 10:51:22;;;;;;;0.10;0.10;;;;;;;24.27;24.01;100353.28;6221561;23;20012;-69
2022/04/28 10:54:16;;;;;;;0.10;0.10;;;;;;;24.65;23.48;100351.72;6247626;23;20087;-71
2022/04/28 10:56:42;;;;;;;0.10;0.10;;;;;;;25.53;22.68;100310.91;6220671;23;20058;-70
2022/04/28 10:59:29;;;;;;;0.10;0.10;;;;;;;25.38;23.79;100352.53;6220287;23;20008;-70
2022/04/28 11:01:56;;;;;;;0.10;0.10;;;;;;;25.75;23.43;100356.53;6220828;23;20015;-70
2022/04/28 11:04:24;;;;;;;0.10;0.10;;;;;;;25.72;22.88;100365.94;6220728;23;20011;-70
2022/04/28 11:06:57;;;;;;;0.10;0.10;;;;;;;25.03;23.79;100343.94;6221785;23;20015;-71
2022/04/28 11:09:43;;;;;;;0.17;0.17;;;;;;;25.86;22.91;100348.38;6220880;23;20337;-69
2022/04/28 11:12:17;;;;;;;0.10;0.10;;;;;;;26.44;22.54;100346.19;6221261;23;20035;-70
2022/04/28 11:14:47;;;;;;;0.10;0.10;;;;;;;25.63;23.15;100350.84;6196437;23;20008;-69
2022/04/28 11:17:15;;;;;;;0.10;0.10;;;;;;;25.05;23.84;100346.34;6221451;23;20008;-71
2022/04/28 11:19:42;;;;;;;0.10;0.10;;;;;;;25.78;23.79;100351.94;6247112;23;20000;-70
2022/04/28 11:22:08;;;;;;;0.10;0.10;;;;;;;25.94;23.80;100348.09;6220601;23;20080;-68
2022/04/28 11:24:34;;;;;;;0.10;0.10;;;;;;;25.82;23.01;100341.19;6220468;23;20011;-70
2022/04/28 11:27:00;;;;;;;0.10;0.10;;;;;;;24.80;24.91;100347.16;6220567;23;20016;-70
2022/04/28 11:29:28;;;;;;;0.20;0.20;;;;;;;24.34;24.31;100346.56;6215030;23;20023;-71
2022/04/28 11:31:54;;;;;;;0.20;0.20;;;;;;;24.21;24.77;100351.47;6215431;23;20015;-70
2022/04/28 11:34:20;;;;;;;0.10;0.10;;;;;;;24.73;24.15;100347.41;6215302;23;20024;-70
2022/04/28 11:36:47;;;;;;;0.10;0.10;;;;;;;24.83;23.66;100349.91;6215927;23;20457;-70
2022/04/28 11:39:12;;;;;;;0.10;0.10;;;;;;;24.81;23.46;100348.75;6215579;23;20027;-70
2022/04/28 11:41:42;;;;;;;0.10;0.10;;;;;;;25.39;22.57;100354.13;6215866;23;20009;-70
2022/04/28 11:44:13;;;;;;;0.10;0.10;;;;;;;25.62;22.60;100355.75;6215751;23;20090;-70
2022/04/28 11:46:45;;;;;;;0.10;0.10;;;;;;;25.69;23.14;100309.13;6217189;23;20004;-69
2022/04/28 11:49:11;;;;;;;0.15;0.15;;;;;;;25.95;22.53;100353.34;6216026;23;20013;-70
2022/04/28 11:51:37;;;;;;;0.10;0.10;;;;;;;25.88;22.81;100350.75;6216107;23;20012;-70
2022/04/28 11:54:22;;;;;;;0.10;0.10;;;;;;;25.53;22.98;100342.22;6215594;23;20418;-70
2022/04/28 11:56:48;;;;;;;0.10;0.10;;;;;;;25.34;23.48;100346.16;6215361;23;20016;-70
2022/04/28 11:59:13;;;;;;;0.17;0.17;;;;;;;25.07;23.47;100333.25;6216057;23;20009;-70
2022/04/28 12:01:39;;;;;;;0.10;0.10;;;;;;;25.04;23.79;100337.00;6215291;23;20030;-70
2022/04/28 12:04:05;;;;;;;0.10;0.10;;;;;;;24.60;24.56;100338.88;6215993;23;20000;-71